Time;durP1;ratioP1;P1;durP2;ratioP2;P2;SDS_P1;SDS_P2;PMS_P1;PMS_P2;Temp;Humidity;BMP_temperature;BMP_pressure;BME280_temperature;BME280_humidity;BME280_pressure;Samples;Min_cycle;Max_cycle;Signal;HPM_P1;HPM_P2
2023/04/30 00:00:10;;;;;;;21.75;15.65;;;;;;;12.59;66.16;101532.31;5076912;28;20131;-68
2023/04/30 00:02:37;;;;;;;23.00;16.75;;;;;;;12.42;66.68;101532.91;5072769;28;20049;-68
2023/04/30 00:05:05;;;;;;;24.73;15.90;;;;;;;12.61;66.39;101544.69;5077211;28;20504;-68
2023/04/30 00:07:32;;;;;;;25.52;16.90;;;;;;;12.51;66.53;101542.13;5074783;28;20063;-68
2023/04/30 00:10:00;;;;;;;28.20;16.63;;;;;;;12.37;67.20;101536.59;5075196;28;20056;-67
2023/04/30 00:12:27;;;;;;;29.15;19.15;;;;;;;12.21;67.98;101546.28;5068837;28;20044;-67
2023/04/30 00:14:55;;;;;;;29.45;19.73;;;;;;;12.20;68.40;101539.09;5069002;28;20435;-68
2023/04/30 00:17:22;;;;;;;33.40;20.65;;;;;;;12.08;68.68;101533.25;5068151;28;20052;-68
2023/04/30 00:19:50;;;;;;;30.77;20.50;;;;;;;11.95;69.77;101541.50;5073409;28;20633;-67
2023/04/30 00:22:18;;;;;;;30.25;20.90;;;;;;;12.04;69.43;101536.94;5074940;28;20057;-67
2023/04/30 00:24:45;;;;;;;32.10;19.50;;;;;;;12.25;68.65;101538.19;5068752;28;20056;-67
2023/04/30 00:27:13;;;;;;;29.83;19.63;;;;;;;12.52;67.98;101535.44;5073319;28;20045;-68
2023/04/30 00:29:40;;;;;;;30.60;20.92;;;;;;;12.31;68.32;101529.50;5074498;28;20044;-69
2023/04/30 00:32:07;;;;;;;30.25;20.70;;;;;;;12.33;68.74;101526.44;5073387;28;20075;-68
2023/04/30 00:34:35;;;;;;;31.50;20.85;;;;;;;12.53;68.21;101526.06;5075953;28;20055;-68
2023/04/30 00:37:02;;;;;;;32.40;20.13;;;;;;;12.34;68.70;101520.59;5074295;28;20052;-68
2023/04/30 00:39:30;;;;;;;28.75;18.10;;;;;;;12.13;69.50;101526.81;5076089;28;20384;-68
2023/04/30 00:41:57;;;;;;;27.35;17.48;;;;;;;12.08;69.59;101532.44;5073075;28;20053;-68
2023/04/30 00:44:24;;;;;;;24.65;17.88;;;;;;;12.02;69.37;101517.06;5076250;28;20404;-68
2023/04/30 00:46:52;;;;;;;24.83;17.05;;;;;;;12.28;69.29;101521.84;5074408;28;20641;-67
2023/04/30 00:49:19;;;;;;;28.73;17.75;;;;;;;12.04;69.55;101520.38;5075307;28;20075;-67
2023/04/30 00:51:47;;;;;;;20.90;16.13;;;;;;;12.13;69.64;101513.03;5071945;28;20071;-67
2023/04/30 00:54:14;;;;;;;25.85;17.42;;;;;;;12.01;70.15;101512.69;5065164;28;20056;-67
2023/04/30 00:56:42;;;;;;;27.23;17.23;;;;;;;12.12;69.96;101514.97;5055272;28;20051;-67
2023/04/30 00:59:09;;;;;;;23.08;16.95;;;;;;;12.11;69.63;101507.81;5073785;28;20048;-68
2023/04/30 01:01:37;;;;;;;25.77;17.20;;;;;;;11.98;69.78;101505.81;5071414;28;20781;-68
2023/04/30 01:04:05;;;;;;;28.20;17.75;;;;;;;12.08;69.83;101505.63;5068864;28;20052;-68
2023/04/30 01:06:32;;;;;;;24.40;17.45;;;;;;;12.05;69.80;101508.19;5073214;28;20055;-68
2023/04/30 01:09:00;;;;;;;28.88;17.85;;;;;;;11.89;70.60;101509.59;5053646;28;20418;-68
2023/04/30 01:11:44;;;;;;;32.03;17.55;;;;;;;11.86;70.60;101510.19;5069678;28;20056;-67
2023/04/30 01:14:31;;;;;;;23.45;16.92;;;;;;;11.77;70.53;101514.78;5074615;28;20048;-67
2023/04/30 01:17:05;;;;;;;23.83;16.67;;;;;;;11.76;70.64;101496.56;5071714;28;20059;-67
2023/04/30 01:19:45;;;;;;;24.55;17.48;;;;;;;11.69;71.51;101513.53;5056756;28;20055;-67
2023/04/30 01:22:24;;;;;;;26.27;17.98;;;;;;;11.63;71.66;101514.69;5065018;28;20087;-67
2023/04/30 01:25:03;;;;;;;23.67;17.27;;;;;;;11.68;71.64;101506.34;5055440;28;20056;-66
2023/04/30 01:27:56;;;;;;;25.67;17.95;;;;;;;11.86;71.00;101496.38;5071757;28;20048;-67
2023/04/30 01:30:24;;;;;;;25.63;16.85;;;;;;;11.57;71.69;101498.50;5064390;28;20060;-67
2023/04/30 01:32:52;;;;;;;22.95;16.33;;;;;;;11.67;71.20;101499.19;5065433;28;20049;-68
2023/04/30 01:35:19;;;;;;;25.30;15.32;;;;;;;11.77;70.78;101492.69;5054824;28;20057;-65
2023/04/30 01:37:59;;;;;;;25.00;16.10;;;;;;;11.81;70.98;101493.72;5038922;28;20059;-67
2023/04/30 01:40:43;;;;;;;25.73;15.57;;;;;;;12.06;70.13;101484.97;5072812;28;20059;-67
2023/04/30 01:43:18;;;;;;;21.45;14.68;;;;;;;11.80;70.58;101490.13;5075307;28;20049;-68
2023/04/30 01:45:58;;;;;;;24.15;16.08;;;;;;;11.97;70.41;101489.56;5071838;28;20061;-68
2023/04/30 01:48:39;;;;;;;21.80;14.98;;;;;;;12.10;69.91;101480.50;5062263;28;20052;-68
2023/04/30 01:51:26;;;;;;;24.65;16.65;;;;;;;11.74;71.40;101485.84;5043381;28;20045;-66
2023/04/30 01:53:57;;;;;;;23.60;14.90;;;;;;;11.65;72.06;101484.88;5071975;28;20079;-68
2023/04/30 01:56:31;;;;;;;23.85;15.63;;;;;;;11.45;72.66;101498.16;5071433;28;20049;-67
2023/04/30 01:58:59;;;;;;;23.05;15.00;;;;;;;11.93;71.89;101497.63;5057092;28;20060;-67
2023/04/30 02:01:28;;;;;;;21.75;15.63;;;;;;;12.08;70.55;101494.59;5035461;28;20049;-67
2023/04/30 02:03:56;;;;;;;23.80;16.00;;;;;;;12.00;70.78;101495.28;5072335;28;20060;-67
2023/04/30 02:06:28;;;;;;;23.50;15.60;;;;;;;11.89;70.53;101490.28;5070974;28;20476;-67
2023/04/30 02:09:01;;;;;;;25.60;15.52;;;;;;;11.93;70.88;101494.88;5055253;28;20057;-68
2023/04/30 02:11:29;;;;;;;19.48;14.20;;;;;;;11.86;71.13;101499.13;5063355;28;20059;-66
2023/04/30 02:13:57;;;;;;;21.85;14.63;;;;;;;11.61;71.75;101503.13;5052865;28;20053;-68
2023/04/30 02:16:25;;;;;;;20.50;14.27;;;;;;;11.48;71.54;101494.78;5061314;28;20373;-67
2023/04/30 02:18:52;;;;;;;19.38;13.60;;;;;;;11.46;72.05;101497.84;5076538;28;20049;-68
2023/04/30 02:21:20;;;;;;;21.90;14.38;;;;;;;11.37;72.65;101493.34;5058039;28;20048;-68
2023/04/30 02:23:47;;;;;;;24.20;14.30;;;;;;;11.26;73.02;101507.25;5073382;28;20065;-67
2023/04/30 02:26:15;;;;;;;19.08;14.77;;;;;;;11.30;73.10;101501.97;5069706;28;20048;-67
2023/04/30 02:28:42;;;;;;;21.17;14.63;;;;;;;11.51;72.63;101507.97;5078406;28;20052;-67
2023/04/30 02:31:10;;;;;;;18.60;13.90;;;;;;;11.24;73.28;101503.97;5075452;28;20052;-68
2023/04/30 02:33:38;;;;;;;21.70;14.70;;;;;;;11.22;73.47;101505.41;5078662;28;20053;-67
2023/04/30 02:36:05;;;;;;;19.60;14.30;;;;;;;11.37;73.36;101507.13;5077209;28;20060;-67
2023/04/30 02:38:33;;;;;;;21.30;13.75;;;;;;;11.61;72.62;101500.34;5077357;28;20518;-68
2023/04/30 02:41:01;;;;;;;21.05;13.85;;;;;;;11.46;72.20;101503.38;5058241;28;20048;-66
2023/04/30 02:43:28;;;;;;;19.63;13.98;;;;;;;11.40;72.51;101510.09;5078387;28;20227;-67
2023/04/30 02:45:56;;;;;;;19.55;13.70;;;;;;;11.54;71.69;101513.72;5077034;28;20048;-67
2023/04/30 02:48:23;;;;;;;18.38;13.65;;;;;;;11.33;72.69;101513.22;5063439;28;20053;-68
2023/04/30 02:50:51;;;;;;;19.15;13.55;;;;;;;11.53;72.09;101503.81;5077369;28;20045;-68
2023/04/30 02:53:18;;;;;;;19.45;14.35;;;;;;;11.48;72.16;101511.34;5064019;28;20049;-67
2023/04/30 02:55:46;;;;;;;19.38;13.77;;;;;;;11.42;72.45;101507.84;5060977;28;20419;-67
2023/04/30 02:58:13;;;;;;;21.05;14.18;;;;;;;11.35;72.98;101505.47;5077261;28;20055;-68
2023/04/30 03:00:41;;;;;;;20.33;13.68;;;;;;;11.34;72.87;101500.25;5076560;28;20154;-68
2023/04/30 03:03:08;;;;;;;23.08;14.45;;;;;;;11.31;72.85;101509.94;5076576;28;20060;-68
2023/04/30 03:05:35;;;;;;;22.60;14.95;;;;;;;11.23;73.45;101502.34;5076832;28;20055;-68
2023/04/30 03:08:03;;;;;;;20.17;14.05;;;;;;;11.22;73.51;101502.66;5063142;28;20048;-68
2023/04/30 03:10:30;;;;;;;19.58;14.38;;;;;;;11.46;72.58;101497.03;5059578;28;20067;-67
2023/04/30 03:12:57;;;;;;;20.83;14.20;;;;;;;11.46;72.37;101497.03;5075160;28;20061;-68
2023/04/30 03:15:25;;;;;;;22.15;14.48;;;;;;;11.38;73.07;101497.72;5058825;28;20048;-68
2023/04/30 03:17:52;;;;;;;20.83;14.45;;;;;;;11.53;72.41;101495.53;5074689;28;20040;-68
2023/04/30 03:20:20;;;;;;;22.02;14.70;;;;;;;11.45;72.49;101495.41;5076320;28;20395;-68
2023/04/30 03:22:47;;;;;;;20.95;15.18;;;;;;;11.29;72.95;101497.59;5065756;28;20083;-67
2023/04/30 03:25:15;;;;;;;20.08;14.38;;;;;;;11.38;73.01;101493.03;5073188;28;20057;-67
2023/04/30 03:27:42;;;;;;;20.60;14.85;;;;;;;11.35;73.00;101491.69;5075972;28;20044;-67
2023/04/30 03:30:09;;;;;;;20.98;14.88;;;;;;;11.18;73.90;101498.84;5077487;28;20052;-67
2023/04/30 03:32:37;;;;;;;20.80;14.73;;;;;;;11.13;74.03;101493.41;5074009;28;20052;-65
2023/04/30 03:35:05;;;;;;;23.15;15.25;;;;;;;10.90;74.96;101495.09;5076380;28;20064;-68
2023/04/30 03:37:32;;;;;;;24.70;15.57;;;;;;;10.79;76.10;101499.09;5037635;28;20045;-67
2023/04/30 03:40:00;;;;;;;26.55;15.98;;;;;;;10.87;75.63;101498.47;5056961;28;20053;-67
2023/04/30 03:42:27;;;;;;;22.98;14.98;;;;;;;11.18;75.46;101498.84;5052679;28;20065;-68
2023/04/30 03:44:54;;;;;;;23.63;15.38;;;;;;;11.20;74.53;101491.09;5056919;28;20048;-68
2023/04/30 03:47:22;;;;;;;21.92;15.65;;;;;;;11.17;74.76;101491.69;5071702;28;20051;-68
2023/04/30 03:49:53;;;;;;;22.67;16.02;;;;;;;11.14;74.63;101492.31;5076997;28;20052;-66
2023/04/30 03:52:22;;;;;;;23.05;16.35;;;;;;;11.21;74.75;101496.31;5069707;28;20060;-66
2023/04/30 03:54:49;;;;;;;24.27;17.00;;;;;;;11.08;75.78;101493.47;5072076;28;20067;-66
2023/04/30 03:57:17;;;;;;;27.27;17.88;;;;;;;11.11;75.76;101490.13;5084502;28;20053;-67
2023/04/30 03:59:45;;;;;;;25.08;17.98;;;;;;;11.16;76.44;101492.81;5057016;28;20053;-67
2023/04/30 04:02:12;;;;;;;26.05;16.92;;;;;;;11.23;75.77;101490.50;5054361;28;20052;-68
2023/04/30 04:04:41;;;;;;;24.85;18.10;;;;;;;11.14;75.87;101486.78;5073267;28;20056;-67
2023/04/30 04:07:10;;;;;;;27.25;18.45;;;;;;;10.94;76.92;101493.41;5072116;28;20063;-67
2023/04/30 04:09:37;;;;;;;24.35;17.98;;;;;;;10.85;77.52;101486.09;5054867;28;20057;-67
2023/04/30 04:12:05;;;;;;;28.50;20.13;;;;;;;10.86;77.83;101487.75;5070352;28;20499;-67
2023/04/30 04:14:32;;;;;;;29.60;19.92;;;;;;;10.85;78.01;101486.91;5057619;28;20061;-66
2023/04/30 04:17:00;;;;;;;29.33;19.77;;;;;;;10.96;77.85;101485.66;5054465;28;20052;-67
2023/04/30 04:19:28;;;;;;;28.90;20.08;;;;;;;11.04;77.32;101485.00;5054143;28;20045;-68
2023/04/30 04:21:56;;;;;;;30.83;20.73;;;;;;;11.15;77.47;101480.16;5067797;28;20053;-68
2023/04/30 04:24:24;;;;;;;26.33;19.55;;;;;;;11.15;77.12;101492.00;5056233;28;20061;-68
2023/04/30 04:26:52;;;;;;;32.85;21.08;;;;;;;11.15;76.96;101499.44;5067595;28;20412;-66
2023/04/30 04:29:20;;;;;;;28.73;21.05;;;;;;;10.93;78.27;101491.75;5075082;28;20051;-67
2023/04/30 04:31:48;;;;;;;29.35;20.70;;;;;;;10.95;78.10;101492.28;5071649;28;20063;-67
2023/04/30 04:34:16;;;;;;;28.27;20.88;;;;;;;11.10;77.96;101499.53;5074869;28;20045;-67
2023/04/30 04:36:43;;;;;;;29.42;21.05;;;;;;;11.04;78.48;101495.19;5056442;28;20064;-66
2023/04/30 04:39:10;;;;;;;32.63;22.05;;;;;;;10.84;78.89;101495.47;5056497;28;20060;-67
2023/04/30 04:41:38;;;;;;;29.00;20.85;;;;;;;10.63;80.51;101502.38;5065290;28;20049;-67
2023/04/30 04:44:06;;;;;;;28.42;21.17;;;;;;;10.83;79.98;101497.41;5057644;28;20508;-67
2023/04/30 04:46:34;;;;;;;34.67;22.35;;;;;;;10.88;80.00;101499.28;5072436;28;20048;-68
2023/04/30 04:49:01;;;;;;;31.90;21.95;;;;;;;11.00;78.93;101497.72;5040233;28;20052;-67
2023/04/30 04:51:29;;;;;;;33.10;22.95;;;;;;;10.98;79.54;101502.69;5064200;28;20056;-68
2023/04/30 04:53:56;;;;;;;33.85;21.40;;;;;;;10.93;79.60;101515.75;5059131;28;20057;-67
2023/04/30 04:56:23;;;;;;;32.60;22.77;;;;;;;10.77;80.03;101506.06;5079878;28;20048;-67
2023/04/30 04:58:51;;;;;;;32.35;22.48;;;;;;;10.86;80.70;101509.78;5073859;28;20048;-66
2023/04/30 05:01:18;;;;;;;33.15;22.73;;;;;;;10.65;81.09;101503.69;5073833;28;20040;-66
2023/04/30 05:03:46;;;;;;;35.45;24.08;;;;;;;10.56;82.21;101508.25;5074028;28;20052;-67
2023/04/30 05:06:14;;;;;;;36.92;24.23;;;;;;;10.45;82.73;101514.97;5072926;28;20048;-68
2023/04/30 05:08:41;;;;;;;38.95;25.05;;;;;;;10.44;83.66;101504.25;5056716;28;20044;-68
2023/04/30 05:11:09;;;;;;;32.97;24.35;;;;;;;10.61;82.82;101521.13;5073517;28;20055;-67
2023/04/30 05:13:36;;;;;;;37.20;24.60;;;;;;;10.46;83.55;101515.81;5075450;28;20170;-67
2023/04/30 05:16:04;;;;;;;35.38;24.23;;;;;;;10.62;82.97;101520.81;5074007;28;20048;-67
2023/04/30 05:18:31;;;;;;;32.53;23.85;;;;;;;10.75;82.08;101519.28;5072703;28;20056;-68
2023/04/30 05:20:58;;;;;;;38.53;26.10;;;;;;;10.58;82.58;101513.47;5072784;28;20048;-67
2023/04/30 05:23:27;;;;;;;34.72;24.92;;;;;;;10.85;82.33;101519.16;5065119;28;20424;-68
2023/04/30 05:25:54;;;;;;;36.78;24.92;;;;;;;10.92;81.33;101525.97;5059999;28;20051;-68
2023/04/30 05:28:21;;;;;;;34.50;25.13;;;;;;;10.86;81.69;101529.09;5072806;28;20060;-67
2023/04/30 05:30:49;;;;;;;40.67;25.20;;;;;;;11.03;81.46;101530.22;5056300;28;20151;-67
2023/04/30 05:33:16;;;;;;;34.35;25.33;;;;;;;11.12;79.99;101524.88;5075019;28;20047;-67
2023/04/30 05:35:43;;;;;;;32.65;24.42;;;;;;;10.99;80.36;101523.66;5068119;28;20052;-67
2023/04/30 05:38:11;;;;;;;35.67;25.35;;;;;;;10.96;80.94;101527.00;5068786;28;20389;-67
2023/04/30 05:40:39;;;;;;;33.88;24.73;;;;;;;10.92;81.15;101536.16;5056128;28;20075;-68
2023/04/30 05:43:07;;;;;;;37.42;25.75;;;;;;;10.97;81.50;101528.63;5067502;28;20056;-68
2023/04/30 05:45:34;;;;;;;34.05;24.20;;;;;;;10.99;81.22;101531.09;5041724;28;20083;-68
2023/04/30 05:48:02;;;;;;;36.03;24.65;;;;;;;10.82;81.14;101526.09;5074727;28;20048;-67
2023/04/30 05:50:29;;;;;;;38.10;24.98;;;;;;;10.83;81.61;101526.91;5055315;28;20052;-67
2023/04/30 05:52:56;;;;;;;35.28;24.75;;;;;;;10.84;81.70;101526.63;5071536;28;20056;-68
2023/04/30 05:55:24;;;;;;;34.40;23.98;;;;;;;11.05;80.95;101539.00;5055846;28;20052;-67
2023/04/30 05:57:51;;;;;;;34.08;23.85;;;;;;;11.31;79.54;101532.00;5074298;28;20063;-67
2023/04/30 06:00:18;;;;;;;40.72;25.88;;;;;;;11.20;79.51;101537.97;5072701;28;20060;-68
2023/04/30 06:02:46;;;;;;;34.13;25.55;;;;;;;11.21;79.84;101528.56;5071638;28;20056;-67
2023/04/30 06:05:14;;;;;;;32.88;24.92;;;;;;;11.05;80.10;101529.94;5068520;28;20064;-67
2023/04/30 06:07:42;;;;;;;37.13;26.10;;;;;;;10.98;80.32;101534.97;5072615;28;20060;-68
2023/04/30 06:10:11;;;;;;;36.15;25.75;;;;;;;11.03;81.12;101534.91;5068435;28;20064;-66
2023/04/30 06:12:39;;;;;;;35.28;24.77;;;;;;;11.29;80.03;101541.72;5071940;28;20138;-68
2023/04/30 06:15:06;;;;;;;35.63;25.60;;;;;;;11.37;79.41;101534.72;5071952;28;20056;-68
2023/04/30 06:17:34;;;;;;;36.50;25.55;;;;;;;11.18;79.34;101538.28;5070348;28;20621;-68
2023/04/30 06:20:05;;;;;;;38.38;26.33;;;;;;;11.25;79.28;101537.91;5054443;28;20048;-68
2023/04/30 06:22:33;;;;;;;36.10;25.55;;;;;;;11.11;79.66;101539.75;5069776;28;20518;-68
2023/04/30 06:25:00;;;;;;;42.25;26.73;;;;;;;10.80;81.43;101536.59;5054908;28;20049;-68
2023/04/30 06:27:28;;;;;;;35.80;25.48;;;;;;;10.80;81.66;101535.75;5053710;28;20045;-67
2023/04/30 06:29:55;;;;;;;38.15;27.15;;;;;;;10.79;82.11;101539.66;5074646;28;20044;-67
2023/04/30 06:32:23;;;;;;;40.20;26.80;;;;;;;10.99;80.97;101536.63;5072243;28;20052;-67
2023/04/30 06:34:50;;;;;;;35.35;25.42;;;;;;;11.00;81.17;101536.31;5073501;28;20063;-68
2023/04/30 06:37:18;;;;;;;36.55;26.27;;;;;;;11.26;80.39;101542.31;5072565;28;20526;-68
2023/04/30 06:39:45;;;;;;;35.08;25.48;;;;;;;11.53;78.80;101536.91;5059341;28;20048;-67
2023/04/30 06:42:12;;;;;;;34.83;25.90;;;;;;;11.30;78.93;101535.88;5069696;28;20052;-67
2023/04/30 06:44:40;;;;;;;37.15;26.42;;;;;;;11.19;79.72;101537.16;5073730;28;20052;-69
2023/04/30 06:47:08;;;;;;;36.30;27.42;;;;;;;11.06;79.69;101542.59;5071766;28;20496;-67
2023/04/30 06:49:35;;;;;;;39.45;28.23;;;;;;;11.16;79.54;101535.00;5035323;28;20068;-66
2023/04/30 06:52:03;;;;;;;36.78;26.70;;;;;;;11.21;79.89;101536.84;5068523;28;20048;-68
2023/04/30 06:54:30;;;;;;;36.95;25.88;;;;;;;11.25;79.60;101529.63;5057226;28;20060;-68
2023/04/30 06:56:57;;;;;;;37.95;26.08;;;;;;;11.50;78.74;101536.69;5061954;28;20523;-68
2023/04/30 06:59:25;;;;;;;34.88;26.73;;;;;;;11.68;77.31;101528.41;5054599;28;20068;-67
2023/04/30 07:01:52;;;;;;;39.30;27.35;;;;;;;11.57;77.55;101534.38;5065557;28;20060;-71
2023/04/30 07:04:23;;;;;;;37.13;26.00;;;;;;;11.76;77.14;101530.50;5074762;28;20060;-68
2023/04/30 07:06:51;;;;;;;39.10;27.38;;;;;;;11.41;78.12;101528.28;5076382;28;20400;-68
2023/04/30 07:09:18;;;;;;;35.40;25.95;;;;;;;11.65;77.65;101523.50;5067473;28;20523;-68
2023/04/30 07:11:46;;;;;;;37.58;25.70;;;;;;;11.70;77.21;101531.69;5069637;28;20492;-68
2023/04/30 07:14:13;;;;;;;40.53;27.13;;;;;;;11.78;76.86;101528.28;5077167;28;20063;-67
2023/04/30 07:16:40;;;;;;;38.35;26.10;;;;;;;11.83;76.39;101535.63;5074948;28;20056;-67
2023/04/30 07:19:08;;;;;;;38.78;26.60;;;;;;;12.00;75.66;101533.94;5077074;28;20060;-66
2023/04/30 07:21:35;;;;;;;38.55;28.52;;;;;;;11.99;75.88;101523.22;5076125;28;20057;-68
2023/04/30 07:24:02;;;;;;;38.75;28.35;;;;;;;12.05;75.78;101520.06;5067210;28;20056;-68
2023/04/30 07:26:30;;;;;;;39.17;27.15;;;;;;;11.92;76.11;101523.63;5082694;28;20052;-67
2023/04/30 07:28:57;;;;;;;39.38;28.83;;;;;;;12.00;75.75;101520.16;5064928;28;20459;-67
2023/04/30 07:31:25;;;;;;;40.00;29.23;;;;;;;12.00;75.41;101530.38;5066265;28;20492;-68
2023/04/30 07:33:54;;;;;;;38.10;27.30;;;;;;;12.19;75.40;101539.41;5076856;28;20492;-67
2023/04/30 07:36:22;;;;;;;38.95;27.90;;;;;;;12.12;75.10;101534.28;5076043;28;20046;-68
2023/04/30 07:38:49;;;;;;;37.92;28.70;;;;;;;12.08;75.05;101532.44;5072751;28;20053;-68
2023/04/30 07:41:16;;;;;;;35.50;27.17;;;;;;;12.27;74.20;101538.72;5063782;28;20052;-67
2023/04/30 07:43:44;;;;;;;38.15;28.25;;;;;;;12.26;74.15;101545.34;5076907;28;20052;-68
2023/04/30 07:46:11;;;;;;;40.88;28.20;;;;;;;11.98;75.15;101549.16;5075677;28;20052;-67
2023/04/30 07:48:40;;;;;;;39.28;27.88;;;;;;;12.05;75.10;101541.31;5075933;28;20510;-68
2023/04/30 07:51:07;;;;;;;38.20;29.27;;;;;;;11.86;75.91;101552.41;5072348;28;20408;-68
2023/04/30 07:53:34;;;;;;;41.58;27.80;;;;;;;12.05;76.26;101539.38;5071640;28;20612;-69
2023/04/30 07:56:02;;;;;;;37.03;27.45;;;;;;;12.45;74.51;101538.63;5061625;28;20518;-68
2023/04/30 07:58:29;;;;;;;37.13;27.15;;;;;;;12.51;73.69;101541.28;5071630;28;20056;-67
2023/04/30 08:00:57;;;;;;;35.30;25.83;;;;;;;12.75;73.58;101542.72;5063327;28;20080;-64
2023/04/30 08:03:24;;;;;;;38.58;28.40;;;;;;;12.69;72.79;101543.97;5068371;28;20056;-64
2023/04/30 08:05:52;;;;;;;40.33;28.67;;;;;;;12.87;72.78;101536.66;5072875;28;20060;-64
2023/04/30 08:08:19;;;;;;;36.03;26.88;;;;;;;13.13;71.04;101540.56;5085472;28;20081;-65
2023/04/30 08:10:47;;;;;;;39.10;28.75;;;;;;;13.20;70.62;101538.19;5070236;28;20040;-64
2023/04/30 08:13:14;;;;;;;40.50;28.17;;;;;;;12.71;71.53;101530.63;5073699;28;20052;-65
2023/04/30 08:15:41;;;;;;;37.80;27.55;;;;;;;12.61;73.08;101538.31;5071055;28;20162;-64
2023/04/30 08:18:09;;;;;;;38.28;28.30;;;;;;;12.68;73.03;101533.19;5071406;28;20052;-65
2023/04/30 08:20:36;;;;;;;37.70;28.23;;;;;;;13.09;71.58;101525.72;5072961;28;20048;-64
2023/04/30 08:23:04;;;;;;;39.08;28.50;;;;;;;12.87;71.85;101520.06;5082635;28;20052;-64
2023/04/30 08:25:32;;;;;;;39.45;28.27;;;;;;;13.28;70.89;101516.16;5088403;28;20068;-65
2023/04/30 08:27:59;;;;;;;37.67;27.85;;;;;;;13.27;70.33;101524.75;5068186;28;20049;-64
2023/04/30 08:30:26;;;;;;;36.75;27.60;;;;;;;13.31;70.12;101509.16;5075098;28;20040;-64
2023/04/30 08:32:54;;;;;;;41.10;29.83;;;;;;;13.56;69.64;101512.13;5072789;28;20048;-64
2023/04/30 08:35:24;;;;;;;37.67;27.00;;;;;;;13.77;68.36;101508.88;5079425;28;20052;-66
2023/04/30 08:37:52;;;;;;;36.50;25.88;;;;;;;13.68;68.85;101516.31;5074944;28;20048;-64
2023/04/30 08:40:19;;;;;;;36.47;26.88;;;;;;;13.76;68.62;101521.91;5072120;28;20045;-64
2023/04/30 08:43:10;;;;;;;33.40;26.40;;;;;;;13.72;68.80;101525.63;5072774;28;20511;-65
2023/04/30 08:45:40;;;;;;;38.78;27.92;;;;;;;13.52;69.65;101515.84;5071929;28;20429;-64
2023/04/30 08:48:10;;;;;;;35.45;25.27;;;;;;;13.69;68.66;101517.91;5073579;28;20462;-64
2023/04/30 08:50:37;;;;;;;33.58;24.92;;;;;;;13.79;68.46;101514.91;5071639;28;20055;-65
2023/04/30 08:53:06;;;;;;;36.92;25.70;;;;;;;13.85;67.90;101520.00;5076008;28;20064;-64
2023/04/30 08:55:34;;;;;;;34.33;24.70;;;;;;;14.12;67.85;101521.81;5038681;28;20064;-64
2023/04/30 08:58:01;;;;;;;31.95;24.33;;;;;;;14.31;66.41;101514.13;5038473;28;20052;-64
2023/04/30 09:00:31;;;;;;;31.70;24.08;;;;;;;14.47;65.79;101507.03;5070523;28;20361;-64
2023/04/30 09:02:59;;;;;;;32.92;25.17;;;;;;;14.71;64.82;101515.75;5066741;28;20072;-64
2023/04/30 09:05:27;;;;;;;34.25;24.73;;;;;;;14.73;64.53;101507.94;5063693;28;20382;-64
2023/04/30 09:07:55;;;;;;;33.25;22.65;;;;;;;14.63;65.00;101516.50;5068457;28;20424;-64
2023/04/30 09:10:31;;;;;;;29.20;22.38;;;;;;;14.91;64.17;101508.75;5072001;28;20060;-64
2023/04/30 09:13:08;;;;;;;32.30;22.55;;;;;;;15.19;63.14;101510.13;5059671;28;20052;-65
2023/04/30 09:15:37;;;;;;;30.85;22.55;;;;;;;14.89;62.97;101516.63;5067789;28;20059;-64
2023/04/30 09:18:16;;;;;;;29.50;22.50;;;;;;;15.02;63.38;101502.59;5060711;28;20049;-65
2023/04/30 09:20:54;;;;;;;30.38;21.58;;;;;;;15.26;62.88;101507.66;5064429;28;21335;-66
2023/04/30 09:23:22;;;;;;;27.65;19.85;;;;;;;15.03;60.92;101504.22;5066925;28;20053;-64
2023/04/30 09:25:50;;;;;;;25.58;20.67;;;;;;;15.03;61.86;101498.66;5055654;28;20052;-64
2023/04/30 09:28:17;;;;;;;28.08;20.45;;;;;;;14.90;62.38;101499.66;5067072;28;20060;-64
2023/04/30 09:30:45;;;;;;;25.48;19.83;;;;;;;15.17;61.87;101502.13;5066684;28;20056;-63
2023/04/30 09:33:12;;;;;;;27.08;20.95;;;;;;;15.30;61.41;101498.38;5071910;28;20071;-65
2023/04/30 09:35:40;;;;;;;26.35;20.13;;;;;;;15.47;60.44;101498.41;5070128;28;20060;-63
2023/04/30 09:38:25;;;;;;;26.73;18.30;;;;;;;15.12;60.61;101499.50;5072919;28;20064;-68
2023/04/30 09:40:53;;;;;;;26.02;20.40;;;;;;;15.19;60.57;101502.63;5055156;28;20788;-65
2023/04/30 09:43:20;;;;;;;25.70;19.48;;;;;;;15.46;59.89;101493.19;5072489;28;20053;-63
2023/04/30 09:45:51;;;;;;;22.92;17.33;;;;;;;15.79;59.38;101494.31;5058622;28;20867;-64
2023/04/30 09:48:26;;;;;;;25.50;18.63;;;;;;;15.98;58.96;101493.94;5069328;28;20079;-65
2023/04/30 09:50:54;;;;;;;20.98;16.15;;;;;;;15.90;58.48;101492.78;5062311;28;20055;-63
2023/04/30 09:53:22;;;;;;;22.13;17.05;;;;;;;15.64;58.06;101492.84;5063971;28;20411;-63
2023/04/30 09:55:50;;;;;;;23.63;17.67;;;;;;;15.92;58.49;101490.50;5069414;28;20655;-64
2023/04/30 09:58:18;;;;;;;21.48;17.10;;;;;;;15.63;57.89;101482.88;5066419;28;20052;-63
2023/04/30 10:00:48;;;;;;;23.00;17.45;;;;;;;15.92;58.25;101481.38;5067527;28;20056;-63
2023/04/30 10:03:16;;;;;;;25.25;16.77;;;;;;;16.00;58.15;101475.78;5067727;28;20075;-63
2023/04/30 10:05:48;;;;;;;22.10;17.48;;;;;;;16.03;57.49;101469.56;5063813;28;20052;-64
2023/04/30 10:08:42;;;;;;;22.70;17.05;;;;;;;15.79;57.54;101474.84;5059879;28;20060;-64
2023/04/30 10:11:15;;;;;;;22.02;16.27;;;;;;;16.01;57.97;101469.06;5066279;28;20510;-63
2023/04/30 10:13:54;;;;;;;24.25;17.10;;;;;;;15.87;57.75;101456.50;5063004;28;20044;-63
2023/04/30 10:16:59;;;;;;;22.17;16.77;;;;;;;15.95;58.26;101452.91;5064345;28;20052;-64
2023/04/30 10:19:31;;;;;;;25.67;17.83;;;;;;;15.92;58.11;101461.94;5066336;28;20063;-64
2023/04/30 10:22:00;;;;;;;22.58;17.55;;;;;;;15.88;58.38;101456.22;5067086;28;20593;-64
2023/04/30 10:24:27;;;;;;;22.48;17.90;;;;;;;15.86;58.03;101463.22;5061995;28;20053;-64
2023/04/30 10:26:56;;;;;;;22.33;17.30;;;;;;;15.92;58.34;101453.59;5069296;28;20052;-64
2023/04/30 10:29:23;;;;;;;22.42;17.25;;;;;;;16.10;58.04;101452.38;5069868;28;20060;-64
2023/04/30 10:31:51;;;;;;;18.83;15.15;;;;;;;16.65;57.57;101437.25;5065004;28;20052;-64
2023/04/30 10:34:29;;;;;;;24.17;16.40;;;;;;;16.69;56.31;101435.41;5058449;28;20056;-64
2023/04/30 10:37:00;;;;;;;20.75;16.30;;;;;;;16.76;56.75;101441.28;5058647;28;20110;-64
2023/04/30 10:39:28;;;;;;;20.98;16.48;;;;;;;16.86;55.69;101440.03;5065031;28;20056;-64
2023/04/30 10:42:03;;;;;;;21.27;15.05;;;;;;;16.70;55.08;101437.03;5068566;28;20044;-64
2023/04/30 10:44:34;;;;;;;17.75;13.80;;;;;;;16.55;55.56;101434.03;5048355;28;20492;-65
2023/04/30 10:47:03;;;;;;;16.02;12.45;;;;;;;16.90;54.27;101432.66;5053714;28;20037;-63
2023/04/30 10:49:30;;;;;;;17.13;13.27;;;;;;;16.96;54.00;101431.31;5062897;28;20049;-64
2023/04/30 10:52:00;;;;;;;15.95;12.35;;;;;;;17.48;54.35;101426.13;5066536;28;20060;-65
2023/04/30 10:54:31;;;;;;;16.05;13.25;;;;;;;17.08;53.97;101427.78;5072798;28;20064;-65
2023/04/30 10:57:12;;;;;;;19.73;14.18;;;;;;;16.92;54.61;101427.56;5069120;28;20040;-64
2023/04/30 10:59:49;;;;;;;16.48;12.52;;;;;;;16.60;54.90;101415.19;5073225;28;20137;-63
2023/04/30 11:02:17;;;;;;;15.15;11.60;;;;;;;17.07;54.96;101413.03;5071932;28;20059;-63
2023/04/30 11:05:12;;;;;;;15.98;11.88;;;;;;;16.91;53.01;101417.59;5061618;28;20053;-64
2023/04/30 11:08:12;;;;;;;12.77;9.07;;;;;;;16.81;52.47;101407.69;5071610;28;20423;-64
2023/04/30 11:10:57;;;;;;;14.23;8.73;;;;;;;16.98;51.88;101412.28;5050234;28;20455;-64
2023/04/30 11:13:26;;;;;;;11.38;8.98;;;;;;;17.07;51.39;101412.25;5063524;28;20053;-63
2023/04/30 11:15:53;;;;;;;12.50;8.43;;;;;;;17.15;51.00;101414.94;5067769;28;20044;-64
2023/04/30 11:18:20;;;;;;;14.70;11.27;;;;;;;17.10;51.79;101412.38;5057380;28;20052;-63